Time;durP1;ratioP1;P1;durP2;ratioP2;P2;SDS_P1;SDS_P2;PMS_P1;PMS_P2;Temp;Humidity;BMP_temperature;BMP_pressure;BME280_temperature;BME280_humidity;BME280_pressure;Samples;Min_cycle;Max_cycle;Signal;HPM_P1;HPM_P2
2022/11/06 00:01:15;;;;;;;40.90;18.83;;;;;;;9.77;nan;-24089.94;5037868;28;20301;-72
2022/11/06 00:03:41;;;;;;;41.10;17.63;;;;;;;9.35;nan;-24078.22;5037990;28;20241;-73
2022/11/06 00:08:54;;;;;;;37.50;16.30;;;;;;;9.51;nan;-24082.59;5038219;28;20267;-72
2022/11/06 00:11:19;;;;;;;40.67;17.93;;;;;;;9.32;nan;-24077.38;5037881;28;20179;-73
2022/11/06 00:13:46;;;;;;;37.13;17.47;;;;;;;9.45;nan;-24081.06;5037363;28;20178;-73
2022/11/06 00:16:13;;;;;;;36.80;16.93;;;;;;;8.86;nan;-24064.50;5038042;28;20194;-73
2022/11/06 00:18:39;;;;;;;36.53;16.27;;;;;;;9.14;nan;-24072.44;5037803;28;20203;-73
2022/11/06 00:21:20;;;;;;;37.83;17.10;;;;;;;9.52;nan;-24083.03;5037443;28;20554;-72
2022/11/06 00:23:46;;;;;;;41.53;17.83;;;;;;;9.25;nan;-24075.53;5036624;28;20183;-72
2022/11/06 00:26:15;;;;;;;43.80;19.70;;;;;;;9.45;nan;-24081.06;5037668;28;20686;-72
2022/11/06 00:28:41;;;;;;;32.63;17.23;;;;;;;9.59;nan;-24085.00;5037882;28;20172;-72
2022/11/06 00:31:11;;;;;;;43.07;18.23;;;;;;;9.73;nan;-24088.97;5037841;28;20183;-73
2022/11/06 00:33:37;;;;;;;47.53;17.90;;;;;;;9.76;nan;-24089.81;5038103;28;20211;-73
2022/11/06 00:36:05;;;;;;;43.23;20.03;;;;;;;9.85;nan;-24092.06;5037509;28;20573;-72
2022/11/06 00:38:30;;;;;;;48.57;21.30;;;;;;;9.81;nan;-24090.94;5037466;28;20601;-72
2022/11/06 00:40:56;;;;;;;40.53;19.00;;;;;;;9.71;nan;-24088.25;5037567;28;20172;-72
2022/11/06 00:43:21;;;;;;;40.73;18.27;;;;;;;10.04;nan;-24097.44;5037677;28;20313;-73
2022/11/06 00:45:47;;;;;;;51.20;19.67;;;;;;;9.70;nan;-24088.13;5037781;28;20171;-74
2022/11/06 00:48:12;;;;;;;41.03;17.73;;;;;;;9.24;nan;-24075.25;5037274;28;20249;-73
2022/11/06 00:50:37;;;;;;;42.93;18.70;;;;;;;9.18;nan;-24073.56;5037487;28;20602;-73
2022/11/06 00:53:03;;;;;;;42.03;17.90;;;;;;;9.39;nan;-24079.22;5034564;28;20174;-73
2022/11/06 00:55:28;;;;;;;38.50;17.80;;;;;;;9.27;nan;-24075.97;5034376;28;20666;-73
2022/11/06 00:57:53;;;;;;;39.73;17.87;;;;;;;9.10;nan;-24071.31;5034356;28;20287;-73
2022/11/06 01:00:19;;;;;;;34.07;17.33;;;;;;;9.29;nan;-24076.53;5034410;28;20182;-73
2022/11/06 01:02:45;;;;;;;28.30;15.90;;;;;;;9.00;nan;-24068.34;5033927;28;20176;-73
2022/11/06 01:05:11;;;;;;;42.57;16.80;;;;;;;9.18;nan;-24073.41;5034409;28;20211;-74
2022/11/06 01:07:37;;;;;;;40.07;19.37;;;;;;;8.88;nan;-24065.22;5034731;28;20179;-73
2022/11/06 01:10:03;;;;;;;45.80;18.53;;;;;;;9.14;nan;-24072.28;5034407;28;20637;-73
2022/11/06 01:12:33;;;;;;;43.77;17.93;;;;;;;8.98;nan;-24067.91;5034426;28;20206;-73
2022/11/06 01:14:58;;;;;;;43.07;18.03;;;;;;;8.95;nan;-24067.06;5033748;28;20218;-74
2022/11/06 01:17:24;;;;;;;35.17;17.20;;;;;;;8.84;nan;-24064.09;5034044;28;20598;-72
2022/11/06 01:19:49;;;;;;;35.27;18.23;;;;;;;8.82;nan;-24063.53;5033636;28;20189;-73
2022/11/06 01:22:15;;;;;;;41.10;18.07;;;;;;;8.55;nan;-24055.88;5033906;28;20203;-72
2022/11/06 01:24:41;;;;;;;36.60;16.73;;;;;;;8.90;nan;-24065.50;5033655;28;20179;-73
2022/11/06 01:27:06;;;;;;;43.13;19.13;;;;;;;8.92;nan;-24066.22;5033913;28;20223;-73
2022/11/06 01:29:32;;;;;;;37.97;17.20;;;;;;;8.88;nan;-24065.22;5033545;28;20540;-73
2022/11/06 01:31:57;;;;;;;42.40;19.33;;;;;;;8.54;nan;-24055.59;5033360;28;20179;-73
2022/11/06 01:34:23;;;;;;;41.37;18.57;;;;;;;8.55;nan;-24055.88;5033620;28;20216;-73
2022/11/06 01:36:48;;;;;;;44.13;19.17;;;;;;;8.74;nan;-24061.25;5033479;28;20176;-73
2022/11/06 01:39:14;;;;;;;39.27;19.03;;;;;;;8.63;nan;-24058.16;5034499;28;20279;-73
2022/11/06 01:41:49;;;;;;;37.43;17.17;;;;;;;9.02;nan;-24068.91;5032496;28;20629;-73
2022/11/06 01:44:42;;;;;;;39.37;17.47;;;;;;;8.95;nan;-24066.91;5033068;28;20637;-73
2022/11/06 01:47:25;;;;;;;43.43;17.33;;;;;;;8.88;nan;-24065.06;5033032;28;20219;-73
2022/11/06 01:49:55;;;;;;;36.33;18.07;;;;;;;8.80;nan;-24062.81;5032771;28;20211;-73
2022/11/06 01:52:22;;;;;;;37.37;16.97;;;;;;;8.77;nan;-24062.09;5033466;28;20550;-73
2022/11/06 01:54:52;;;;;;;38.13;18.00;;;;;;;8.71;nan;-24060.25;5033387;28;20180;-74
2022/11/06 01:57:18;;;;;;;34.83;16.53;;;;;;;8.65;nan;-24058.56;5033345;28;20242;-73
2022/11/06 01:59:44;;;;;;;39.23;17.80;;;;;;;8.71;nan;-24060.25;5033129;28;20215;-73
2022/11/06 02:02:12;;;;;;;32.00;17.00;;;;;;;8.72;nan;-24060.56;5032220;28;20542;-73
2022/11/06 02:04:42;;;;;;;41.50;18.13;;;;;;;8.73;nan;-24060.97;5032687;28;20182;-73
2022/11/06 02:07:08;;;;;;;34.23;17.23;;;;;;;8.72;nan;-24060.56;5032729;28;20256;-73
2022/11/06 02:09:34;;;;;;;39.70;17.13;;;;;;;8.56;nan;-24056.16;5032965;28;20178;-73
2022/11/06 02:12:41;;;;;;;32.73;17.13;;;;;;;8.58;nan;-24056.59;5033148;28;20547;-73
2022/11/06 02:15:21;;;;;;;33.43;16.73;;;;;;;8.51;nan;-24054.75;5027379;28;20227;-73
2022/11/06 02:18:16;;;;;;;29.70;15.80;;;;;;;8.39;nan;-24051.50;5032824;28;20199;-73
2022/11/06 02:21:00;;;;;;;34.70;14.77;;;;;;;7.98;nan;-24040.03;5032960;28;20249;-73
2022/11/06 02:23:40;;;;;;;40.37;17.33;;;;;;;8.47;nan;-24053.47;5032592;28;20235;-73
2022/11/06 02:26:18;;;;;;;39.77;17.10;;;;;;;8.15;nan;-24044.56;5032444;28;20742;-73
2022/11/06 02:28:54;;;;;;;36.23;17.10;;;;;;;8.40;nan;-24051.63;5032542;28;20178;-73
2022/11/06 02:31:29;;;;;;;31.23;15.60;;;;;;;8.34;nan;-24049.94;5032899;28;20203;-73
2022/11/06 02:34:04;;;;;;;42.57;17.10;;;;;;;8.42;nan;-24052.34;5032712;28;20266;-74
2022/11/06 02:36:34;;;;;;;35.60;16.07;;;;;;;8.38;nan;-24051.22;5032000;28;20639;-73
2022/11/06 02:39:09;;;;;;;43.33;16.93;;;;;;;8.02;nan;-24041.00;5032833;28;20210;-73
2022/11/06 02:41:40;;;;;;;33.73;17.30;;;;;;;8.31;nan;-24049.09;5032605;28;20169;-73
2022/11/06 02:44:09;;;;;;;30.87;15.03;;;;;;;8.33;nan;-24049.78;5032539;28;20171;-73
2022/11/06 02:46:39;;;;;;;31.33;14.87;;;;;;;8.36;nan;-24050.50;5032382;28;20182;-73
2022/11/06 02:49:18;;;;;;;39.20;16.83;;;;;;;8.05;nan;-24041.84;5031660;28;20666;-73
2022/11/06 02:51:51;;;;;;;35.97;17.07;;;;;;;8.40;nan;-24051.63;5030903;28;20613;-73
2022/11/06 02:54:20;;;;;;;32.73;15.07;;;;;;;8.29;nan;-24048.50;5032021;28;20175;-73
2022/11/06 02:56:51;;;;;;;36.80;17.37;;;;;;;8.18;nan;-24045.53;5031913;28;20187;-73
2022/11/06 02:59:22;;;;;;;36.30;15.97;;;;;;;8.46;nan;-24053.19;5032250;28;20584;-73
2022/11/06 03:01:54;;;;;;;36.47;15.33;;;;;;;8.52;nan;-24055.03;5032381;28;20266;-73
2022/11/06 03:04:32;;;;;;;30.53;15.37;;;;;;;8.38;nan;-24051.06;5032082;28;20243;-72
2022/11/06 03:07:05;;;;;;;33.87;14.90;;;;;;;8.20;nan;-24045.97;5032656;28;20225;-72
2022/11/06 03:09:32;;;;;;;37.50;17.37;;;;;;;8.09;nan;-24042.84;5032026;28;20254;-73
2022/11/06 03:12:50;;;;;;;36.17;17.57;;;;;;;8.37;nan;-24050.78;5031960;28;20226;-73
2022/11/06 03:15:39;;;;;;;33.80;16.17;;;;;;;8.34;nan;-24050.06;5015324;28;20733;-73
2022/11/06 03:18:14;;;;;;;38.50;16.47;;;;;;;8.11;nan;-24043.56;5031352;28;20191;-73
2022/11/06 03:20:47;;;;;;;35.60;16.10;;;;;;;8.50;nan;-24054.31;5031404;28;20170;-73
2022/11/06 03:23:19;;;;;;;32.50;16.13;;;;;;;8.17;nan;-24045.13;5030186;28;20578;-72
2022/11/06 03:25:58;;;;;;;39.10;18.07;;;;;;;8.04;nan;-24041.44;5031774;28;20227;-72
2022/11/06 03:28:30;;;;;;;30.73;15.33;;;;;;;8.57;nan;-24056.31;5031964;28;20175;-72
2022/11/06 03:31:01;;;;;;;33.40;15.73;;;;;;;8.51;nan;-24054.75;5031689;28;20246;-74
2022/11/06 03:33:32;;;;;;;36.57;16.93;;;;;;;8.47;nan;-24053.63;5031503;28;20172;-72
2022/11/06 03:36:07;;;;;;;32.70;16.00;;;;;;;8.43;nan;-24052.47;5031514;28;20171;-73
2022/11/06 03:38:43;;;;;;;25.93;13.87;;;;;;;8.53;nan;-24055.31;5030995;28;20196;-73
2022/11/06 03:41:18;;;;;;;35.90;16.80;;;;;;;8.57;nan;-24056.44;5046569;28;20558;-72
2022/11/06 03:43:48;;;;;;;37.90;17.77;;;;;;;8.22;nan;-24046.53;5031704;28;20621;-72
2022/11/06 03:46:18;;;;;;;40.60;16.50;;;;;;;8.61;nan;-24057.44;5031454;28;20197;-73
2022/11/06 03:48:59;;;;;;;36.27;17.37;;;;;;;8.57;nan;-24056.44;5031578;28;20258;-72
2022/11/06 03:51:44;;;;;;;27.20;15.47;;;;;;;8.31;nan;-24049.09;5031393;28;20232;-73
2022/11/06 03:54:28;;;;;;;39.83;16.73;;;;;;;8.26;nan;-24047.81;5031645;28;20168;-73
2022/11/06 03:57:03;;;;;;;33.87;14.83;;;;;;;8.23;nan;-24046.81;5030827;28;20627;-72
2022/11/06 03:59:34;;;;;;;35.63;15.30;;;;;;;8.70;nan;-24060.13;5031678;28;20179;-74
2022/11/06 04:02:01;;;;;;;29.77;14.47;;;;;;;8.38;nan;-24051.22;5031295;28;20168;-73
2022/11/06 04:04:34;;;;;;;39.40;15.23;;;;;;;8.50;nan;-24054.47;5031176;28;20186;-73
2022/11/06 04:07:06;;;;;;;33.50;15.03;;;;;;;8.39;nan;-24051.50;5031456;28;20175;-73
2022/11/06 04:15:14;;;;;;;27.77;14.60;;;;;;;8.83;nan;-24063.81;5031578;28;20708;-72
2022/11/06 04:17:40;;;;;;;37.40;16.23;;;;;;;8.30;nan;-24048.81;5031224;28;20210;-72
2022/11/06 04:20:10;;;;;;;31.50;15.53;;;;;;;8.52;nan;-24054.88;5031021;28;20171;-73
2022/11/06 04:22:54;;;;;;;33.37;16.57;;;;;;;8.61;nan;-24057.56;5029499;28;20217;-72
2022/11/06 04:28:42;;;;;;;36.97;15.73;;;;;;;8.71;nan;-24060.41;5032030;28;20266;-73
2022/11/06 04:31:07;;;;;;;33.13;16.73;;;;;;;8.32;nan;-24049.38;5034750;28;20254;-73
2022/11/06 04:33:54;;;;;;;33.50;14.97;;;;;;;7.67;nan;-24031.25;5034831;28;20282;-73
2022/11/06 04:36:39;;;;;;;34.47;16.37;;;;;;;7.75;nan;-24033.38;5034502;28;20650;-73
2022/11/06 04:39:24;;;;;;;37.23;17.40;;;;;;;7.89;nan;-24037.31;5034807;28;20579;-72
2022/11/06 04:42:04;;;;;;;33.87;16.37;;;;;;;8.03;nan;-24041.16;5034770;28;20547;-73
2022/11/06 04:44:38;;;;;;;32.47;16.00;;;;;;;8.03;nan;-24041.28;5034133;28;20190;-72
2022/11/06 04:47:08;;;;;;;28.53;16.03;;;;;;;8.06;nan;-24042.16;5034802;28;20582;-72
2022/11/06 04:49:36;;;;;;;31.87;16.33;;;;;;;7.97;nan;-24039.59;5032868;28;20661;-73
2022/11/06 04:52:05;;;;;;;29.87;15.30;;;;;;;8.00;nan;-24040.44;5034564;28;20262;-73
2022/11/06 04:54:31;;;;;;;33.93;15.37;;;;;;;8.39;nan;-24051.34;5033776;28;20677;-73
2022/11/06 04:57:01;;;;;;;33.07;16.47;;;;;;;8.52;nan;-24054.88;5034160;28;20171;-73
2022/11/06 04:59:30;;;;;;;37.00;15.33;;;;;;;8.53;nan;-24055.31;5034137;28;20669;-73
2022/11/06 05:01:55;;;;;;;34.87;15.57;;;;;;;8.26;nan;-24047.81;5034398;28;20265;-73
2022/11/06 05:04:21;;;;;;;34.80;17.43;;;;;;;8.35;nan;-24050.38;5032628;28;20218;-74
2022/11/06 05:06:46;;;;;;;34.73;16.90;;;;;;;8.48;nan;-24053.91;5034509;28;20186;-74
2022/11/06 05:09:11;;;;;;;42.43;18.23;;;;;;;4.83;nan;-23951.44;5034056;28;20591;-74
2022/11/06 05:11:37;;;;;;;38.83;16.30;;;;;;;8.17;nan;-24045.25;5034721;28;20249;-73
2022/11/06 05:14:03;;;;;;;39.60;16.10;;;;;;;8.54;nan;-24055.47;5034077;28;20255;-72
2022/11/06 05:16:28;;;;;;;32.57;16.70;;;;;;;8.46;nan;-24053.19;5033807;28;20168;-73
2022/11/06 05:18:54;;;;;;;36.77;16.80;;;;;;;8.62;nan;-24057.72;5033822;28;20674;-73
2022/11/06 05:24:03;;;;;;;38.70;16.23;;;;;;;8.63;nan;-24058.00;5033957;28;20174;-73
2022/11/06 05:26:28;;;;;;;30.60;15.47;;;;;;;8.29;nan;-24048.50;5033353;28;20219;-73
2022/11/06 05:28:54;;;;;;;37.50;16.23;;;;;;;8.34;nan;-24050.06;5027552;28;20187;-73
2022/11/06 05:31:19;;;;;;;35.03;17.07;;;;;;;8.79;nan;-24062.53;5021332;28;20634;-73
2022/11/06 05:33:45;;;;;;;41.33;17.20;;;;;;;8.43;nan;-24052.63;5029939;28;20180;-73
2022/11/06 05:36:10;;;;;;;35.83;16.60;;;;;;;8.89;nan;-24065.34;5023362;28;20180;-74
2022/11/06 05:38:36;;;;;;;33.77;16.23;;;;;;;8.49;nan;-24054.19;5019659;28;20200;-74
2022/11/06 05:41:01;;;;;;;44.57;16.87;;;;;;;8.73;nan;-24060.97;5017007;28;20250;-73
2022/11/06 05:43:26;;;;;;;30.80;16.47;;;;;;;9.05;nan;-24069.75;5026936;28;20258;-73
2022/11/06 05:45:52;;;;;;;31.13;16.77;;;;;;;8.80;nan;-24062.94;5025915;28;20570;-73
2022/11/06 05:48:17;;;;;;;44.10;18.20;;;;;;;9.19;nan;-24073.84;5022815;28;21238;-72
2022/11/06 05:50:43;;;;;;;34.83;16.57;;;;;;;9.05;nan;-24069.75;5022842;28;20627;-73
2022/11/06 05:53:08;;;;;;;42.37;18.63;;;;;;;9.38;nan;-24078.94;5025305;28;20622;-73
2022/11/06 05:55:34;;;;;;;29.57;16.43;;;;;;;9.42;nan;-24080.06;5022131;28;20193;-73
2022/11/06 05:57:59;;;;;;;46.97;17.83;;;;;;;9.63;nan;-24086.00;5023766;28;20569;-73
2022/11/06 06:00:25;;;;;;;36.37;15.53;;;;;;;9.17;nan;-24073.13;5023374;28;20657;-73
2022/11/06 06:02:50;;;;;;;34.80;16.03;;;;;;;9.27;nan;-24076.09;5027504;28;20643;-73
2022/11/06 06:05:16;;;;;;;38.57;17.03;;;;;;;9.39;nan;-24079.22;5020346;28;20192;-73
2022/11/06 06:07:41;;;;;;;36.50;16.70;;;;;;;9.70;nan;-24087.97;5026056;28;20294;-73
2022/11/06 06:10:08;;;;;;;32.63;15.57;;;;;;;9.37;nan;-24078.78;5022698;28;20220;-73
2022/11/06 06:12:33;;;;;;;31.87;15.90;;;;;;;9.86;nan;-24092.50;5020236;28;20618;-73
2022/11/06 06:14:59;;;;;;;33.03;16.27;;;;;;;10.00;nan;-24096.31;5017911;28;20216;-73
2022/11/06 06:17:25;;;;;;;47.15;18.05;;;;;;;10.07;nan;-24098.44;5019487;28;20226;-72
2022/11/06 06:19:50;;;;;;;30.07;16.53;;;;;;;10.23;nan;-24102.66;5018459;28;20218;-73
2022/11/06 06:22:16;;;;;;;41.73;16.80;;;;;;;10.22;nan;-24102.53;5018204;28;20188;-73
2022/11/06 06:24:41;;;;;;;29.67;15.57;;;;;;;10.26;nan;-24103.53;5024946;28;20570;-74
2022/11/06 06:27:07;;;;;;;37.13;17.53;;;;;;;10.10;nan;-24099.13;5018791;28;20224;-72
2022/11/06 06:29:32;;;;;;;33.15;16.27;;;;;;;10.39;nan;-24107.19;5025004;28;20332;-73
2022/11/06 06:31:58;;;;;;;31.67;14.90;;;;;;;10.34;nan;-24105.78;5018989;28;20584;-73
2022/11/06 06:34:23;;;;;;;34.50;16.17;;;;;;;10.48;nan;-24109.88;5018470;28;20549;-73
2022/11/06 06:36:51;;;;;;;31.65;16.63;;;;;;;10.94;nan;-24122.56;5024587;28;20176;-72
2022/11/06 06:39:18;;;;;;;36.85;17.58;;;;;;;11.01;nan;-24124.53;5019391;28;20274;-73
2022/11/06 06:41:43;;;;;;;41.15;16.83;;;;;;;11.03;nan;-24125.09;5027147;28;20180;-73
2022/11/06 06:44:09;;;;;;;35.58;17.77;;;;;;;11.33;nan;-24133.56;5020636;28;20210;-73
2022/11/06 06:46:34;;;;;;;33.08;15.82;;;;;;;10.92;nan;-24122.00;5022046;28;20180;-73
2022/11/06 06:49:00;;;;;;;32.20;15.73;;;;;;;11.41;nan;-24135.81;5021367;28;20559;-73
2022/11/06 06:51:25;;;;;;;34.53;16.05;;;;;;;11.44;nan;-24136.66;5017635;28;20190;-73
2022/11/06 06:53:50;;;;;;;33.88;15.80;;;;;;;11.75;nan;-24145.25;5025045;28;20172;-73
2022/11/06 06:56:16;;;;;;;35.58;16.05;;;;;;;11.84;nan;-24147.66;5019462;28;20187;-72
2022/11/06 06:58:41;;;;;;;38.42;16.85;;;;;;;11.81;nan;-24146.81;5019651;28;20234;-71
2022/11/06 07:01:09;;;;;;;34.67;16.98;;;;;;;11.71;nan;-24143.97;5020349;28;20183;-72
2022/11/06 07:03:38;;;;;;;42.67;17.63;;;;;;;11.65;nan;-24142.28;5018352;28;20175;-72
2022/11/06 07:06:04;;;;;;;37.53;17.85;;;;;;;12.10;nan;-24154.81;5018882;28;20188;-72
2022/11/06 07:08:30;;;;;;;33.38;16.20;;;;;;;12.06;nan;-24153.84;5025982;28;20555;-72
2022/11/06 07:11:04;;;;;;;35.78;16.23;;;;;;;11.95;nan;-24150.88;5021287;28;20192;-73
2022/11/06 07:13:29;;;;;;;36.88;16.17;;;;;;;12.05;nan;-24153.41;5025190;28;20286;-72
2022/11/06 07:15:55;;;;;;;34.75;16.05;;;;;;;11.82;nan;-24147.22;5020504;28;20270;-72
2022/11/06 07:18:21;;;;;;;37.50;16.42;;;;;;;11.93;nan;-24150.19;5022132;28;20199;-75
2022/11/06 07:20:46;;;;;;;33.88;15.30;;;;;;;12.26;nan;-24159.34;5024109;28;20246;-74
2022/11/06 07:23:12;;;;;;;35.80;14.00;;;;;;;12.52;nan;-24166.50;5020478;28;20180;-75
2022/11/06 07:25:37;;;;;;;24.55;13.05;;;;;;;12.85;nan;-24175.78;5023902;28;20266;-74
2022/11/06 07:28:05;;;;;;;30.45;14.18;;;;;;;12.68;nan;-24171.00;5028363;28;20183;-73
2022/11/06 07:30:31;;;;;;;26.65;12.75;;;;;;;12.68;nan;-24171.00;5021105;28;20192;-73
2022/11/06 07:33:00;;;;;;;28.80;13.02;;;;;;;12.98;nan;-24179.44;5019552;28;20201;-74
2022/11/06 07:35:25;;;;;;;30.73;12.93;;;;;;;13.27;nan;-24187.47;5030969;28;20175;-76
2022/11/06 07:37:50;;;;;;;33.42;13.57;;;;;;;13.13;nan;-24183.66;5017360;28;20302;-74
2022/11/06 07:40:16;;;;;;;29.88;12.98;;;;;;;13.26;nan;-24187.19;5018039;28;20225;-75
2022/11/06 07:42:41;;;;;;;32.00;13.85;;;;;;;13.65;nan;-24198.13;5021599;28;20237;-74
2022/11/06 07:45:08;;;;;;;27.20;13.85;;;;;;;13.37;nan;-24190.13;5022300;28;20186;-74
2022/11/06 07:47:33;;;;;;;25.23;12.43;;;;;;;13.53;nan;-24194.75;5023815;28;20190;-74
2022/11/06 07:49:58;;;;;;;29.15;14.20;;;;;;;13.91;nan;-24205.16;5021885;28;20183;-76
2022/11/06 07:52:24;;;;;;;24.40;12.00;;;;;;;14.35;nan;-24217.34;5027509;28;20179;-74
2022/11/06 07:54:50;;;;;;;29.25;12.73;;;;;;;14.21;nan;-24213.56;5017752;28;20498;-73
2022/11/06 07:57:15;;;;;;;25.30;12.68;;;;;;;14.37;nan;-24218.06;5018937;28;20190;-73
2022/11/06 07:59:41;;;;;;;28.70;12.38;;;;;;;14.50;nan;-24221.72;5022948;28;20546;-74
2022/11/06 08:02:11;;;;;;;30.70;13.88;;;;;;;14.99;nan;-24235.31;5019287;28;20176;-74
2022/11/06 08:04:37;;;;;;;31.65;12.48;;;;;;;15.05;nan;-24236.84;5020271;28;20193;-74
2022/11/06 08:07:02;;;;;;;23.92;12.30;;;;;;;14.86;nan;-24231.53;5022208;28;20188;-75
2022/11/06 08:09:28;;;;;;;24.48;11.82;;;;;;;14.85;nan;-24231.38;5018675;28;20184;-75
2022/11/06 08:11:53;;;;;;;22.48;12.20;;;;;;;14.81;nan;-24230.25;5022044;28;20187;-74
2022/11/06 08:14:18;;;;;;;23.65;11.70;;;;;;;14.58;nan;-24223.81;5023866;28;20183;-73
2022/11/06 08:16:44;;;;;;;22.05;11.90;;;;;;;14.10;nan;-24210.63;5020230;28;20182;-74
2022/11/06 08:19:09;;;;;;;25.90;11.35;;;;;;;14.17;nan;-24212.44;5021672;28;20207;-73
2022/11/06 08:21:35;;;;;;;25.25;11.43;;;;;;;14.08;nan;-24210.06;5019337;28;20194;-73
2022/11/06 08:24:00;;;;;;;22.10;10.85;;;;;;;14.12;nan;-24211.19;5020233;28;20323;-75
2022/11/06 08:26:26;;;;;;;28.08;11.82;;;;;;;14.23;nan;-24214.13;5019587;28;20211;-74
2022/11/06 08:28:53;;;;;;;26.05;12.68;;;;;;;14.37;nan;-24218.06;5029094;28;20249;-75
2022/11/06 08:31:19;;;;;;;25.88;11.32;;;;;;;14.59;nan;-24224.09;5024133;28;20191;-73
2022/11/06 08:33:45;;;;;;;25.58;12.40;;;;;;;14.37;nan;-24217.94;5021031;28;20246;-73
2022/11/06 08:36:10;;;;;;;23.35;11.23;;;;;;;14.04;nan;-24208.81;5026718;28;20187;-74
2022/11/06 08:38:36;;;;;;;23.58;10.93;;;;;;;14.19;nan;-24213.00;5019241;28;20208;-75
2022/11/06 08:41:07;;;;;;;25.05;11.25;;;;;;;13.95;nan;-24206.28;5025616;28;20187;-73
2022/11/06 08:43:33;;;;;;;25.88;11.07;;;;;;;14.03;nan;-24208.53;5019262;28;20188;-73
2022/11/06 08:45:59;;;;;;;28.38;13.10;;;;;;;13.88;nan;-24204.31;5025127;28;20204;-74
2022/11/06 08:48:24;;;;;;;32.15;11.98;;;;;;;14.05;nan;-24209.09;5031410;28;20218;-73
2022/11/06 08:50:50;;;;;;;31.23;13.93;;;;;;;14.30;nan;-24216.09;5020061;28;20259;-73
2022/11/06 08:53:15;;;;;;;27.50;12.73;;;;;;;13.53;nan;-24194.63;5020662;28;20531;-75
2022/11/06 08:55:41;;;;;;;31.02;11.43;;;;;;;13.54;nan;-24194.91;5020190;28;20254;-74
2022/11/06 08:58:07;;;;;;;23.63;11.18;;;;;;;13.30;nan;-24188.31;5039546;28;20210;-74
2022/11/06 09:00:32;;;;;;;20.88;11.07;;;;;;;13.09;nan;-24182.41;5030988;28;20275;-74
2022/11/06 09:03:04;;;;;;;24.60;11.38;;;;;;;12.88;nan;-24176.50;5021508;28;20207;-75
2022/11/06 09:05:30;;;;;;;23.23;11.93;;;;;;;12.84;nan;-24175.50;5025159;28;20290;-75
2022/11/06 09:07:56;;;;;;;21.20;11.30;;;;;;;12.28;nan;-24160.03;5028921;28;20200;-75
2022/11/06 09:10:22;;;;;;;27.88;11.85;;;;;;;12.30;nan;-24160.59;5013874;28;20172;-76
2022/11/06 09:12:48;;;;;;;30.73;11.05;;;;;;;12.24;nan;-24158.78;5020033;28;20187;-75
2022/11/06 09:15:14;;;;;;;21.75;10.65;;;;;;;12.10;nan;-24154.97;5021426;28;20186;-75
2022/11/06 09:17:47;;;;;;;24.98;11.10;;;;;;;11.95;nan;-24150.75;5024390;28;20210;-76
2022/11/06 09:20:14;;;;;;;21.00;11.40;;;;;;;12.05;nan;-24153.41;5021531;28;20294;-75
2022/11/06 09:22:40;;;;;;;26.38;11.60;;;;;;;12.02;nan;-24152.72;5017863;28;20176;-77
2022/11/06 09:25:06;;;;;;;23.25;11.25;;;;;;;12.46;nan;-24164.97;5019778;28;20177;-77
2022/11/06 09:27:32;;;;;;;31.48;13.50;;;;;;;12.44;nan;-24164.41;5021536;28;20223;-76
2022/11/06 09:29:58;;;;;;;27.30;13.63;;;;;;;12.57;nan;-24167.91;5025570;28;20226;-75
2022/11/06 09:32:24;;;;;;;27.55;14.60;;;;;;;12.71;nan;-24171.84;5020154;28;20667;-74
2022/11/06 09:34:50;;;;;;;32.83;14.07;;;;;;;12.81;nan;-24174.81;5018249;28;20215;-76
2022/11/06 09:37:15;;;;;;;28.45;15.45;;;;;;;12.57;nan;-24167.91;5021935;28;20631;-75
2022/11/06 09:39:41;;;;;;;30.92;15.15;;;;;;;12.59;nan;-24168.47;5026532;28;20226;-76
2022/11/06 09:42:34;;;;;;;29.88;15.10;;;;;;;12.98;nan;-24179.44;5023466;28;20299;-76
2022/11/06 09:45:12;;;;;;;29.75;14.48;;;;;;;12.97;nan;-24179.16;5027275;28;20179;-75
2022/11/06 09:47:43;;;;;;;28.80;15.38;;;;;;;13.16;nan;-24184.50;5018878;28;20183;-77
2022/11/06 09:50:16;;;;;;;31.33;15.13;;;;;;;13.33;nan;-24189.00;5019733;28;20258;-76
2022/11/06 09:52:51;;;;;;;27.80;14.55;;;;;;;13.35;nan;-24189.72;5018473;28;20191;-75
2022/11/06 09:55:23;;;;;;;30.67;13.45;;;;;;;13.11;nan;-24183.09;5024304;28;20658;-76
2022/11/06 09:58:27;;;;;;;26.65;13.18;;;;;;;13.22;nan;-24186.06;5018371;28;20748;-75
2022/11/06 10:00:53;;;;;;;32.70;13.63;;;;;;;12.97;nan;-24179.03;5018445;28;20716;-75
2022/11/06 10:03:42;;;;;;;31.35;16.17;;;;;;;13.36;nan;-24190.00;5026300;28;20254;-75
2022/11/06 10:06:08;;;;;;;25.58;13.20;;;;;;;13.03;nan;-24180.84;5023518;28;20631;-75
2022/11/06 10:08:33;;;;;;;26.20;13.85;;;;;;;13.41;nan;-24191.38;5024756;28;20176;-76
2022/11/06 10:11:23;;;;;;;32.65;13.13;;;;;;;13.60;nan;-24196.72;5024398;28;20206;-75
2022/11/06 10:14:03;;;;;;;32.08;14.60;;;;;;;13.50;nan;-24193.91;5018319;28;20176;-75
2022/11/06 10:16:42;;;;;;;24.83;12.73;;;;;;;13.35;nan;-24189.72;5022077;28;20592;-75
2022/11/06 10:19:38;;;;;;;28.02;12.35;;;;;;;13.78;nan;-24201.63;5018659;28;20211;-75
2022/11/06 10:22:06;;;;;;;23.95;11.80;;;;;;;13.66;nan;-24198.28;5026917;28;20187;-76
2022/11/06 10:24:57;;;;;;;23.88;11.88;;;;;;;13.73;nan;-24200.09;5018924;28;20176;-76
2022/11/06 10:28:04;;;;;;;29.42;11.40;;;;;;;13.42;nan;-24191.66;5021641;28;20256;-76
2022/11/06 10:30:56;;;;;;;18.42;10.90;;;;;;;13.42;nan;-24191.66;5000929;28;20650;-76
2022/11/06 10:33:27;;;;;;;36.78;14.90;;;;;;;13.64;nan;-24197.72;5038155;28;20183;-74
2022/11/06 10:36:00;;;;;;;24.73;11.93;;;;;;;13.17;nan;-24184.66;5018354;28;20183;-75
2022/11/06 10:38:35;;;;;;;32.88;13.32;;;;;;;13.49;nan;-24193.50;5021393;28;20764;-76
2022/11/06 10:41:01;;;;;;;25.88;13.52;;;;;;;13.61;nan;-24196.88;5025807;28;20538;-75
2022/11/06 10:43:34;;;;;;;27.45;14.18;;;;;;;13.50;nan;-24193.91;5015259;28;20193;-75
2022/11/06 10:46:30;;;;;;;28.80;13.48;;;;;;;13.87;nan;-24204.16;5013199;28;20191;-75
2022/11/06 10:48:59;;;;;;;26.23;13.13;;;;;;;14.05;nan;-24209.22;5031982;28;20170;-76
2022/11/06 10:51:36;;;;;;;26.67;13.30;;;;;;;14.11;nan;-24210.91;5032092;28;20203;-75
2022/11/06 10:54:27;;;;;;;28.20;14.18;;;;;;;13.99;nan;-24207.53;5032089;28;20250;-75
2022/11/06 10:56:55;;;;;;;26.15;13.55;;;;;;;14.16;nan;-24212.16;5032162;28;20230;-75
2022/11/06 10:59:20;;;;;;;27.63;13.98;;;;;;;13.85;nan;-24203.59;5031622;28;20277;-75
2022/11/06 11:01:46;;;;;;;29.52;13.05;;;;;;;14.11;nan;-24210.91;5030669;28;20271;-75
2022/11/06 11:04:11;;;;;;;28.77;12.80;;;;;;;14.28;nan;-24215.53;5032020;28;20653;-75
2022/11/06 11:06:39;;;;;;;26.00;13.52;;;;;;;14.49;nan;-24221.28;5030834;28;20183;-75
2022/11/06 11:09:27;;;;;;;22.85;12.18;;;;;;;14.57;nan;-24223.66;5031851;28;20171;-78
2022/11/06 11:11:52;;;;;;;25.92;12.82;;;;;;;;;;5030545;28;20183;-75
2022/11/06 11:14:26;;;;;;;26.25;13.55;;;;;;;11.79;nan;-24146.25;5030915;28;20179;-75
2022/11/06 11:16:52;;;;;;;30.67;12.50;;;;;;;14.69;nan;-24226.75;5021264;28;20186;-77
2022/11/06 11:19:36;;;;;;;21.75;12.10;;;;;;;14.56;nan;-24223.41;5030725;28;20327;-76
2022/11/06 11:22:04;;;;;;;22.65;10.20;;;;;;;14.78;nan;-24229.41;5031263;28;20182;-74
2022/11/06 11:24:30;;;;;;;26.88;12.95;;;;;;;14.62;nan;-24224.78;5017312;28;20183;-77
2022/11/06 11:27:04;;;;;;;24.48;12.07;;;;;;;14.93;nan;-24233.63;5010438;28;20327;-75
2022/11/06 11:29:46;;;;;;;25.23;12.23;;;;;;;14.82;nan;-24230.53;5011425;28;20164;-74
2022/11/06 11:32:17;;;;;;;28.38;12.40;;;;;;;15.07;nan;-24237.28;5012298;28;20290;-75
2022/11/06 11:34:46;;;;;;;20.00;11.10;;;;;;;15.42;nan;-24247.22;5011703;28;20681;-76
2022/11/06 11:37:26;;;;;;;24.50;11.70;;;;;;;15.34;nan;-24244.84;5010022;28;20172;-75
2022/11/06 11:39:52;;;;;;;28.42;12.45;;;;;;;15.58;nan;-24251.56;5011871;28;20265;-76
2022/11/06 11:42:29;;;;;;;22.70;10.82;;;;;;;15.39;nan;-24246.22;5011943;28;20642;-76
2022/11/06 11:45:09;;;;;;;23.55;11.43;;;;;;;15.84;nan;-24258.69;5011516;28;20168;-76
2022/11/06 11:47:36;;;;;;;21.92;11.35;;;;;;;16.06;nan;-24264.72;5011462;28;20293;-75
2022/11/06 11:50:31;;;;;;;20.52;10.88;;;;;;;16.17;nan;-24267.78;5011350;28;20171;-75
2022/11/06 11:53:05;;;;;;;24.88;12.00;;;;;;;15.72;nan;-24255.47;5007154;28;20196;-74
2022/11/06 11:55:37;;;;;;;22.58;11.40;;;;;;;15.81;nan;-24258.00;5011560;28;20255;-74
2022/11/06 11:58:02;;;;;;;23.15;11.70;;;;;;;15.84;nan;-24258.69;5011603;28;20196;-75